CheckWX is a tool to help pilots better visualize weather data.  It is not intended as a substitute for an official pre-flight weather briefing.

09:25:48 UTC

EGNJ METAR
Humberside Airport
Grimsby, United Kingdom
Current

36 mins ago

EGNJ 200850Z 20012KT CAVOK 08/07 Q1015
Observed
Feb-20 @ 08:50 UTC
Wind
  • 200° at 12 KTS
Visibility
10,000+ meters
Flight Rules
VFR
Cloud Levels
  • Clear skies
Temperature
C / 46°F
Dewpoint
C / 45°F
Humidity
93%
Altimeter
29.97" Hg
Pressure
1014.92 hPa
Previous

1 hour ago

EGNJ 200820Z 21012KT CAVOK 08/07 Q1014
Observed
Feb-20 @ 08:20 UTC
Wind
  • 210° at 12 KTS
Visibility
10,000+ meters
Flight Rules
VFR
Cloud Levels
  • Clear skies
Temperature
C / 46°F
Dewpoint
C / 45°F
Humidity
93%
Altimeter
29.94" Hg
Pressure
1013.92 hPa
Previous

2 hours ago

EGNJ 200750Z 20014KT CAVOK 08/06 Q1014
Observed
Feb-20 @ 07:50 UTC
Wind
  • 200° at 14 KTS
Visibility
10,000+ meters
Flight Rules
VFR
Cloud Levels
  • Clear skies
Temperature
C / 46°F
Dewpoint
C / 43°F
Humidity
87%
Altimeter
29.94" Hg
Pressure
1013.92 hPa